createdAt,value
2018-02-25T00:00:27.658Z,10.30
2018-02-25T00:02:55.155Z,9.20
2018-02-25T00:05:22.613Z,8.98
2018-02-25T00:07:50.087Z,8.95
2018-02-25T00:10:17.576Z,10.40
2018-02-25T00:12:45.127Z,10.38
2018-02-25T00:15:12.597Z,9.13
2018-02-25T00:17:40.100Z,10.93
2018-02-25T00:20:07.611Z,9.75
2018-02-25T00:22:35.253Z,9.25
2018-02-25T00:25:03.109Z,8.88
2018-02-25T00:27:30.578Z,9.25
2018-02-25T00:29:58.043Z,8.80
2018-02-25T00:32:25.519Z,8.18
2018-02-25T00:34:53.519Z,9.25
2018-02-25T00:37:20.976Z,9.35
2018-02-25T00:39:48.446Z,8.80
2018-02-25T00:42:15.920Z,9.55
2018-02-25T00:44:43.440Z,8.50
2018-02-25T00:47:10.972Z,8.48
2018-02-25T00:49:38.497Z,8.18
2018-02-25T00:52:06.272Z,8.65
2018-02-25T00:54:33.748Z,8.43
2018-02-25T00:57:01.286Z,8.43
2018-02-25T00:59:28.747Z,9.23
2018-02-25T01:01:56.225Z,8.75
2018-02-25T01:04:23.708Z,8.32
2018-02-25T01:06:51.180Z,7.90
2018-02-25T01:09:18.683Z,8.13
2018-02-25T01:11:46.157Z,8.73
2018-02-25T01:14:13.740Z,7.80
2018-02-25T01:16:41.470Z,8.82
2018-02-25T01:19:08.931Z,8.15
2018-02-25T01:21:36.406Z,8.70
2018-02-25T01:24:03.862Z,9.32
2018-02-25T01:26:31.600Z,8.68
2018-02-25T01:28:59.091Z,8.15
2018-02-25T01:31:26.552Z,9.43
2018-02-25T01:33:54.007Z,8.52
2018-02-25T01:36:21.491Z,8.52
2018-02-25T01:38:48.991Z,8.45
2018-02-25T01:41:16.459Z,9.38
2018-02-25T01:43:43.942Z,9.02
2018-02-25T01:46:11.409Z,8.70
2018-02-25T01:48:38.905Z,8.20
2018-02-25T01:51:06.402Z,8.38
2018-02-25T01:53:33.860Z,9.23
2018-02-25T01:56:01.331Z,8.88
2018-02-25T01:58:28.799Z,7.55
2018-02-25T02:00:56.262Z,8.10
2018-02-25T02:03:23.737Z,8.50
2018-02-25T02:05:51.226Z,9.25
2018-02-25T02:08:18.697Z,7.70
2018-02-25T02:10:46.187Z,8.07
2018-02-25T02:13:13.668Z,8.48
2018-02-25T02:15:41.151Z,7.28
2018-02-25T02:18:08.629Z,8.38
2018-02-25T02:20:36.114Z,7.95
2018-02-25T02:23:03.595Z,8.05
2018-02-25T02:25:31.078Z,8.02
2018-02-25T02:27:58.551Z,7.43
2018-02-25T02:30:26.180Z,8.27
2018-02-25T02:32:53.668Z,8.02
2018-02-25T02:35:21.121Z,8.10
2018-02-25T02:37:48.596Z,7.05
2018-02-25T02:40:16.259Z,7.87
2018-02-25T02:42:43.721Z,7.28
2018-02-25T02:45:11.176Z,7.87
2018-02-25T02:47:38.652Z,7.82
2018-02-25T02:50:06.679Z,7.25
2018-02-25T02:52:34.176Z,7.72
2018-02-25T02:55:01.671Z,5.50
2018-02-25T02:57:29.199Z,7.15
2018-02-25T02:59:56.647Z,7.95
2018-02-25T03:02:24.116Z,8.38
2018-02-25T03:04:51.592Z,8.52
2018-02-25T03:07:19.048Z,7.78
2018-02-25T03:09:46.528Z,8.27
2018-02-25T03:12:14.018Z,8.07
2018-02-25T03:14:41.471Z,9.00
2018-02-25T03:17:08.942Z,8.35
2018-02-25T03:19:36.415Z,8.55
2018-02-25T03:22:03.946Z,8.73
2018-02-25T03:24:31.423Z,8.45
2018-02-25T03:26:58.884Z,9.90
2018-02-25T03:29:26.368Z,8.27
2018-02-25T03:31:53.898Z,8.82
2018-02-25T03:34:21.362Z,9.00
2018-02-25T03:36:48.839Z,9.48
2018-02-25T03:39:16.356Z,7.62
2018-02-25T03:41:43.818Z,8.70
2018-02-25T03:44:11.297Z,9.15
2018-02-25T03:46:38.766Z,9.15
2018-02-25T03:49:06.244Z,8.85
2018-02-25T03:51:33.755Z,10.55
2018-02-25T03:54:01.223Z,9.98
2018-02-25T03:56:28.696Z,10.27
2018-02-25T03:58:56.180Z,10.02
2018-02-25T04:01:23.665Z,10.27
2018-02-25T04:06:24.308Z,9.95
2018-02-25T04:08:51.787Z,11.68
2018-02-25T04:11:19.267Z,10.38
2018-02-25T04:13:46.746Z,11.25
2018-02-25T04:16:14.306Z,9.25
2018-02-25T04:18:41.886Z,9.95
2018-02-25T04:21:09.373Z,11.15
2018-02-25T04:23:36.845Z,12.00
2018-02-25T04:26:04.322Z,11.45
2018-02-25T04:28:31.811Z,12.32
2018-02-25T04:30:59.315Z,10.20
2018-02-25T04:33:26.780Z,12.65
2018-02-25T04:35:54.339Z,11.23
2018-02-25T04:38:21.822Z,11.50
2018-02-25T04:40:49.292Z,10.60
2018-02-25T04:43:16.757Z,10.82
2018-02-25T04:45:44.281Z,10.65
2018-02-25T04:48:11.741Z,11.05
2018-02-25T04:50:39.217Z,11.98
2018-02-25T04:53:06.711Z,10.82
2018-02-25T04:55:34.187Z,11.93
2018-02-25T04:58:01.693Z,13.13
2018-02-25T05:00:29.253Z,12.50
2018-02-25T05:02:56.740Z,12.10
2018-02-25T05:05:24.224Z,12.13
2018-02-25T05:07:51.738Z,11.75
2018-02-25T05:10:19.210Z,12.85
2018-02-25T05:12:46.975Z,11.82
2018-02-25T05:15:14.568Z,13.05
2018-02-25T05:17:42.063Z,12.55
2018-02-25T05:20:09.570Z,14.20
2018-02-25T05:22:37.040Z,13.00
2018-02-25T05:25:04.521Z,11.90
2018-02-25T05:27:32.005Z,12.68
2018-02-25T05:29:59.491Z,13.10
2018-02-25T05:32:26.988Z,11.88
2018-02-25T05:34:54.473Z,11.30
2018-02-25T05:37:21.948Z,13.55
2018-02-25T05:39:49.422Z,13.73
2018-02-25T05:42:16.911Z,13.55
2018-02-25T05:44:44.371Z,12.98
2018-02-25T05:47:11.845Z,11.55
2018-02-25T05:49:39.328Z,12.00
2018-02-25T05:52:06.841Z,12.82
2018-02-25T05:54:34.367Z,12.57
2018-02-25T05:57:02.698Z,13.70
2018-02-25T05:59:30.672Z,12.90
2018-02-25T06:02:00.100Z,13.40
2018-02-25T06:04:27.607Z,13.15
2018-02-25T06:06:55.087Z,12.40
2018-02-25T06:09:22.575Z,13.32
2018-02-25T06:11:50.119Z,13.40
2018-02-25T06:14:18.216Z,13.50
2018-02-25T06:16:45.684Z,13.52
2018-02-25T06:19:13.156Z,13.60
2018-02-25T06:21:40.637Z,13.05
2018-02-25T06:24:09.907Z,12.77
2018-02-25T06:26:38.714Z,13.40
2018-02-25T06:29:07.428Z,11.93
2018-02-25T06:31:35.759Z,14.00
2018-02-25T06:34:04.224Z,12.10
2018-02-25T06:36:31.707Z,12.27
2018-02-25T06:38:59.171Z,12.65
2018-02-25T06:41:26.656Z,13.05
2018-02-25T06:43:54.149Z,12.85
2018-02-25T06:46:21.626Z,14.48
2018-02-25T06:48:49.103Z,11.07
2018-02-25T06:51:18.093Z,12.45
2018-02-25T06:53:45.574Z,11.88
2018-02-25T06:56:13.076Z,12.13
2018-02-25T06:58:40.535Z,12.00
2018-02-25T07:01:07.992Z,11.80
2018-02-25T07:03:35.568Z,11.05
2018-02-25T07:06:03.045Z,11.85
2018-02-25T07:08:30.528Z,11.48
2018-02-25T07:10:58.003Z,10.82
2018-02-25T07:13:25.491Z,10.43
2018-02-25T07:15:52.996Z,11.60
2018-02-25T07:18:20.561Z,11.20
2018-02-25T07:20:48.073Z,11.30
2018-02-25T07:23:16.286Z,12.18
2018-02-25T07:25:43.847Z,10.48
2018-02-25T07:28:11.325Z,11.85
2018-02-25T07:30:38.820Z,12.60
2018-02-25T07:33:06.360Z,11.82
2018-02-25T07:35:33.801Z,10.75
2018-02-25T07:38:01.296Z,11.52
2018-02-25T07:40:28.767Z,11.00
2018-02-25T07:42:56.241Z,11.15
2018-02-25T07:45:23.723Z,11.60
2018-02-25T07:47:51.202Z,11.05
2018-02-25T07:50:18.740Z,11.55
2018-02-25T07:52:46.227Z,11.95
2018-02-25T07:55:13.712Z,11.95
2018-02-25T07:57:41.199Z,11.85
2018-02-25T08:00:08.733Z,10.40
2018-02-25T08:02:36.213Z,10.73
2018-02-25T08:05:03.736Z,11.48
2018-02-25T08:07:31.229Z,13.45
2018-02-25T08:09:58.712Z,10.45
2018-02-25T08:12:26.339Z,11.90
2018-02-25T08:14:53.833Z,10.88
2018-02-25T08:17:21.358Z,11.55
2018-02-25T08:19:48.867Z,10.00
2018-02-25T08:22:16.448Z,11.35
2018-02-25T08:24:44.956Z,10.80
2018-02-25T08:27:12.451Z,11.77
2018-02-25T08:29:39.953Z,12.63
2018-02-25T08:32:07.428Z,11.45
2018-02-25T08:34:34.901Z,12.13
2018-02-25T08:37:02.376Z,10.55
2018-02-25T08:39:29.925Z,12.30
2018-02-25T08:41:57.421Z,11.95
2018-02-25T08:44:24.877Z,14.52
2018-02-25T08:46:52.379Z,13.25
2018-02-25T08:49:19.851Z,12.95
2018-02-25T08:51:47.385Z,12.90
2018-02-25T08:54:14.879Z,12.93
2018-02-25T08:56:42.344Z,14.18
2018-02-25T08:59:09.835Z,11.55
2018-02-25T09:01:37.316Z,12.13
2018-02-25T09:04:04.806Z,12.60
2018-02-25T09:06:32.303Z,12.18
2018-02-25T09:08:59.790Z,12.40
2018-02-25T09:11:27.261Z,11.55
2018-02-25T09:13:54.727Z,12.85
2018-02-25T09:16:22.210Z,12.63
2018-02-25T09:18:49.686Z,12.27
2018-02-25T09:21:17.196Z,11.40
2018-02-25T09:23:44.750Z,10.80
2018-02-25T09:26:12.278Z,11.65
2018-02-25T09:28:39.749Z,11.38
2018-02-25T09:31:07.269Z,12.40
2018-02-25T09:33:34.814Z,12.60
2018-02-25T09:36:02.329Z,11.35
2018-02-25T09:38:30.090Z,12.80
2018-02-25T09:40:57.580Z,13.75
2018-02-25T09:43:25.064Z,13.55
2018-02-25T09:45:53.108Z,12.60
2018-02-25T09:48:20.576Z,12.23
2018-02-25T09:50:48.047Z,11.57
2018-02-25T09:53:15.574Z,13.32
2018-02-25T09:55:43.044Z,11.30
2018-02-25T09:58:10.519Z,12.98
2018-02-25T10:00:38.001Z,12.43
2018-02-25T10:03:05.491Z,12.98
2018-02-25T10:05:32.988Z,16.42
2018-02-25T10:08:00.620Z,12.27
2018-02-25T10:10:28.282Z,13.60
2018-02-25T10:12:55.759Z,12.77
2018-02-25T10:15:23.243Z,13.48
2018-02-25T10:17:50.784Z,12.37
2018-02-25T10:20:18.331Z,12.40
2018-02-25T10:22:45.796Z,14.15
2018-02-25T10:25:13.284Z,13.20
2018-02-25T10:27:40.762Z,13.10
2018-02-25T10:30:08.285Z,12.65
2018-02-25T10:32:35.780Z,12.65
2018-02-25T10:35:03.283Z,12.10
2018-02-25T10:37:30.768Z,14.27
2018-02-25T10:39:58.256Z,12.55
2018-02-25T10:42:25.848Z,14.07
2018-02-25T10:44:53.320Z,12.90
2018-02-25T10:47:20.806Z,13.45
2018-02-25T10:49:48.315Z,12.82
2018-02-25T10:52:15.839Z,13.85
2018-02-25T10:54:43.401Z,14.07
2018-02-25T10:57:10.897Z,13.27
2018-02-25T10:59:38.367Z,13.95
2018-02-25T11:02:05.840Z,13.95
2018-02-25T11:04:33.306Z,13.48
2018-02-25T11:07:00.774Z,14.40
2018-02-25T11:09:28.267Z,11.48
2018-02-25T11:11:55.788Z,14.00
2018-02-25T11:14:23.266Z,12.70
2018-02-25T11:16:50.783Z,12.60
2018-02-25T11:19:18.281Z,13.07
2018-02-25T11:21:45.773Z,12.77
2018-02-25T11:24:14.358Z,11.90
2018-02-25T11:26:41.857Z,12.32
2018-02-25T11:29:09.417Z,13.25
2018-02-25T11:31:37.001Z,12.57
2018-02-25T11:34:04.464Z,13.13
2018-02-25T11:36:31.926Z,15.50
2018-02-25T11:38:59.405Z,13.25
2018-02-25T11:41:26.907Z,13.50
2018-02-25T11:43:54.433Z,13.55
2018-02-25T11:46:21.933Z,11.73
2018-02-25T11:48:49.490Z,13.20
2018-02-25T11:51:17.161Z,13.13
2018-02-25T11:53:44.659Z,12.85
2018-02-25T11:56:12.430Z,13.13
2018-02-25T11:58:40.000Z,13.88
2018-02-25T12:01:07.520Z,12.23
2018-02-25T12:03:34.988Z,12.63
2018-02-25T12:06:02.495Z,12.73
2018-02-25T12:08:29.981Z,12.95
2018-02-25T12:10:57.510Z,13.65
2018-02-25T12:13:25.003Z,12.80
2018-02-25T12:15:52.451Z,12.57
2018-02-25T12:18:19.985Z,12.63
2018-02-25T12:20:47.464Z,11.88
2018-02-25T12:23:14.990Z,12.95
2018-02-25T12:25:42.543Z,13.30
2018-02-25T12:28:10.040Z,13.23
2018-02-25T12:30:37.499Z,12.25
2018-02-25T12:33:05.004Z,11.35
2018-02-25T12:35:32.487Z,12.35
2018-02-25T12:37:59.975Z,12.20
2018-02-25T12:40:27.436Z,13.43
2018-02-25T12:42:54.894Z,14.38
2018-02-25T12:45:22.445Z,12.18
2018-02-25T12:47:49.935Z,12.70
2018-02-25T12:50:17.427Z,12.95
2018-02-25T12:52:44.928Z,13.90
2018-02-25T12:55:12.384Z,13.13
2018-02-25T12:57:39.872Z,11.48
2018-02-25T13:00:07.327Z,13.00
2018-02-25T13:02:34.867Z,13.05
2018-02-25T13:05:02.389Z,13.32
2018-02-25T13:07:29.889Z,13.15
2018-02-25T13:09:57.449Z,14.02
2018-02-25T13:12:25.465Z,12.77
2018-02-25T13:14:52.964Z,12.90
2018-02-25T13:17:20.459Z,13.60
2018-02-25T13:19:47.964Z,14.20
2018-02-25T13:22:15.648Z,13.00
2018-02-25T13:24:43.385Z,12.93
2018-02-25T13:27:10.988Z,13.62
2018-02-25T13:29:38.463Z,13.62
2018-02-25T13:32:05.954Z,14.07
2018-02-25T13:34:33.525Z,12.98
2018-02-25T13:37:01.064Z,11.60
2018-02-25T13:39:28.551Z,14.73
2018-02-25T13:41:56.094Z,12.20
2018-02-25T13:44:23.684Z,12.93
2018-02-25T13:46:51.176Z,12.52
2018-02-25T13:49:18.649Z,14.40
2018-02-25T13:51:46.492Z,12.60
2018-02-25T13:54:14.135Z,11.12
2018-02-25T13:56:41.601Z,12.02
2018-02-25T13:59:09.085Z,11.48
2018-02-25T14:01:36.595Z,11.38
2018-02-25T14:04:04.114Z,11.10
2018-02-25T14:06:31.597Z,10.63
2018-02-25T14:08:59.083Z,10.35
2018-02-25T14:11:26.546Z,9.85
2018-02-25T14:13:54.067Z,10.10
2018-02-25T14:16:21.572Z,10.52
2018-02-25T14:18:49.191Z,9.32
2018-02-25T14:21:16.683Z,10.57
2018-02-25T14:23:44.164Z,9.98
2018-02-25T14:26:11.801Z,8.88
2018-02-25T14:28:39.359Z,9.75
2018-02-25T14:31:06.823Z,9.75
2018-02-25T14:33:34.308Z,9.65
2018-02-25T14:36:01.792Z,10.85
2018-02-25T14:38:29.297Z,10.23
2018-02-25T14:40:56.793Z,9.52
2018-02-25T14:43:24.352Z,11.20
2018-02-25T14:45:51.824Z,11.27
2018-02-25T14:48:19.306Z,9.43
2018-02-25T14:50:46.799Z,10.07
2018-02-25T14:53:14.276Z,9.88
2018-02-25T14:55:41.747Z,10.10
2018-02-25T14:58:09.212Z,10.40
2018-02-25T15:00:36.736Z,10.32
2018-02-25T15:03:04.211Z,10.45
2018-02-25T15:05:31.765Z,9.93
2018-02-25T15:07:59.269Z,10.68
2018-02-25T15:10:26.737Z,10.95
2018-02-25T15:12:54.206Z,10.20
2018-02-25T15:15:21.696Z,9.35
2018-02-25T15:17:49.177Z,9.10
2018-02-25T15:20:16.750Z,9.25
2018-02-25T15:22:44.252Z,8.55
2018-02-25T15:25:11.781Z,8.88
2018-02-25T15:27:39.300Z,9.65
2018-02-25T15:30:06.788Z,9.73
2018-02-25T15:32:34.421Z,10.88
2018-02-25T15:35:02.945Z,10.90
2018-02-25T15:37:31.288Z,9.57
2018-02-25T15:39:58.766Z,9.90
2018-02-25T15:42:26.321Z,8.82
2018-02-25T15:44:53.808Z,8.52
2018-02-25T15:47:21.316Z,9.50
2018-02-25T15:49:48.787Z,9.13
2018-02-25T15:52:16.247Z,9.43
2018-02-25T15:54:44.377Z,9.07
2018-02-25T15:57:11.951Z,9.10
2018-02-25T15:59:39.419Z,9.00
2018-02-25T16:02:06.883Z,8.80
2018-02-25T16:04:34.765Z,9.13
2018-02-25T16:07:03.725Z,9.30
2018-02-25T16:09:31.199Z,9.60
2018-02-25T16:11:58.849Z,10.25
2018-02-25T16:14:26.351Z,8.82
2018-02-25T16:16:53.816Z,8.80
2018-02-25T16:19:21.332Z,8.90
2018-02-25T16:21:48.856Z,9.20
2018-02-25T16:24:16.320Z,9.65
2018-02-25T16:26:43.811Z,9.45
2018-02-25T16:29:11.316Z,10.68
2018-02-25T16:31:38.803Z,9.40
2018-02-25T16:34:06.628Z,8.90
2018-02-25T16:36:34.084Z,8.48
2018-02-25T16:39:01.604Z,8.38
2018-02-25T16:41:29.500Z,7.72
2018-02-25T16:43:56.984Z,9.10
2018-02-25T16:46:24.472Z,9.20
2018-02-25T16:48:51.964Z,8.82
2018-02-25T16:51:19.420Z,8.65
2018-02-25T16:53:46.896Z,9.30
2018-02-25T16:56:14.527Z,10.38
2018-02-25T16:58:42.061Z,8.07
2018-02-25T17:01:09.545Z,9.20
2018-02-25T17:03:37.002Z,9.15
2018-02-25T17:06:04.471Z,7.20
2018-02-25T17:08:32.117Z,9.60
2018-02-25T17:11:01.017Z,8.73
2018-02-25T17:13:28.478Z,9.23
2018-02-25T17:15:56.012Z,8.05
2018-02-25T17:18:23.722Z,8.85
2018-02-25T17:20:51.242Z,8.45
2018-02-25T17:23:24.526Z,10.43
2018-02-25T17:25:52.024Z,9.55
2018-02-25T17:28:19.491Z,9.68
2018-02-25T17:30:46.971Z,9.25
2018-02-25T17:33:14.697Z,10.48
2018-02-25T17:35:42.176Z,10.35
2018-02-25T17:38:09.666Z,11.05
2018-02-25T17:40:38.081Z,10.43
2018-02-25T17:43:05.613Z,12.88
2018-02-25T17:45:33.106Z,11.00
2018-02-25T17:48:00.592Z,11.98
2018-02-25T17:50:28.111Z,10.50
2018-02-25T17:52:55.632Z,10.80
2018-02-25T17:55:24.520Z,12.13
2018-02-25T17:57:50.697Z,9.48
2018-02-25T18:00:18.279Z,11.77
2018-02-25T18:02:45.819Z,11.75
2018-02-25T18:05:13.295Z,11.55
2018-02-25T18:07:40.801Z,12.27
2018-02-25T18:10:09.793Z,12.05
2018-02-25T18:12:37.272Z,11.10
2018-02-25T18:15:04.863Z,12.98
2018-02-25T18:17:32.342Z,13.18
2018-02-25T18:19:59.836Z,12.90
2018-02-25T18:22:27.347Z,12.20
2018-02-25T18:24:54.991Z,12.73
2018-02-25T18:29:54.750Z,15.48
2018-02-25T18:32:22.296Z,14.10
2018-02-25T18:34:49.801Z,13.62
2018-02-25T18:37:17.354Z,13.05
2018-02-25T18:39:45.068Z,14.05
2018-02-25T18:42:12.584Z,14.00
2018-02-25T18:44:40.067Z,13.55
2018-02-25T18:47:07.638Z,14.87
2018-02-25T18:49:35.140Z,14.48
2018-02-25T18:52:02.636Z,15.13
2018-02-25T18:54:30.569Z,15.27
2018-02-25T18:56:58.222Z,14.48
2018-02-25T18:59:26.078Z,13.73
2018-02-25T19:01:54.036Z,15.90
2018-02-25T19:04:22.952Z,15.52
2018-02-25T19:06:50.432Z,14.95
2018-02-25T19:09:17.970Z,15.55
2018-02-25T19:11:45.467Z,15.00
2018-02-25T19:14:13.139Z,16.52
2018-02-25T19:16:40.790Z,14.55
2018-02-25T19:19:12.293Z,15.90
2018-02-25T19:21:40.347Z,14.63
2018-02-25T19:24:07.868Z,14.90
2018-02-25T19:26:35.858Z,14.82
2018-02-25T19:29:03.375Z,16.30
2018-02-25T19:31:30.881Z,15.65
2018-02-25T19:33:58.400Z,14.10
2018-02-25T19:36:31.722Z,15.60
2018-02-25T19:39:04.648Z,15.13
2018-02-25T19:41:37.888Z,13.80
2018-02-25T19:44:05.420Z,15.00
2018-02-25T19:46:33.259Z,13.90
2018-02-25T19:49:00.767Z,14.23
2018-02-25T19:51:28.306Z,15.13
2018-02-25T19:53:55.831Z,15.55
2018-02-25T19:56:23.345Z,15.50
2018-02-25T19:58:50.845Z,14.40
2018-02-25T20:01:19.191Z,17.55
2018-02-25T20:03:46.728Z,16.48
2018-02-25T20:06:14.465Z,15.38
2018-02-25T20:08:41.938Z,17.05
2018-02-25T20:11:09.434Z,17.92
2018-02-25T20:13:36.997Z,16.75
2018-02-25T20:16:04.491Z,16.67
2018-02-25T20:18:32.010Z,16.70
2018-02-25T20:20:59.530Z,17.15
2018-02-25T20:23:27.020Z,16.52
2018-02-25T20:25:54.519Z,15.82
2018-02-25T20:28:22.238Z,15.48
2018-02-25T20:30:49.728Z,16.20
2018-02-25T20:33:17.288Z,15.02
2018-02-25T20:35:44.765Z,14.98
2018-02-25T20:38:12.284Z,17.80
2018-02-25T20:40:39.763Z,14.50
2018-02-25T20:43:07.269Z,15.25
2018-02-25T20:45:36.934Z,15.48
2018-02-25T20:48:04.429Z,15.82
2018-02-25T20:50:32.318Z,16.10
2018-02-25T20:52:59.834Z,16.87
2018-02-25T20:55:27.426Z,16.17
2018-02-25T20:57:54.982Z,15.23
2018-02-25T21:00:23.208Z,15.50
2018-02-25T21:02:50.716Z,14.60
2018-02-25T21:05:18.204Z,14.45
2018-02-25T21:07:45.676Z,16.25
2018-02-25T21:10:13.265Z,17.37
2018-02-25T21:12:40.813Z,15.30
2018-02-25T21:15:08.930Z,16.60
2018-02-25T21:17:36.442Z,15.70
2018-02-25T21:22:36.494Z,17.15
2018-02-25T21:25:04.020Z,16.40
2018-02-25T21:27:31.508Z,15.50
2018-02-25T21:29:59.580Z,14.60
2018-02-25T21:32:27.062Z,15.15
2018-02-25T21:34:55.512Z,16.35
2018-02-25T21:37:23.003Z,15.43
2018-02-25T21:39:50.495Z,15.80
2018-02-25T21:42:17.970Z,16.58
2018-02-25T21:44:45.443Z,15.98
2018-02-25T21:47:12.901Z,17.48
2018-02-25T21:49:40.427Z,16.20
2018-02-25T21:52:07.916Z,15.80
2018-02-25T21:54:40.928Z,15.20
2018-02-25T21:57:15.683Z,15.20
2018-02-25T21:59:48.707Z,15.90
2018-02-25T22:02:21.801Z,15.65
2018-02-25T22:04:49.279Z,15.43
2018-02-25T22:07:16.769Z,16.55
2018-02-25T22:09:44.264Z,15.05
2018-02-25T22:12:12.820Z,16.33
2018-02-25T22:14:40.315Z,16.60
2018-02-25T22:17:07.812Z,14.55
2018-02-25T22:19:35.383Z,15.18
2018-02-25T22:24:36.576Z,16.10
2018-02-25T22:27:04.135Z,16.15
2018-02-25T22:29:31.616Z,17.60
2018-02-25T22:31:59.155Z,16.83
2018-02-25T22:34:28.024Z,15.82
2018-02-25T22:36:55.510Z,14.70
2018-02-25T22:39:22.998Z,15.77
2018-02-25T22:41:50.501Z,14.27
2018-02-25T22:44:18.847Z,15.70
2018-02-25T22:46:46.387Z,15.52
2018-02-25T22:49:13.894Z,15.50
2018-02-25T22:51:41.482Z,15.40
2018-02-25T22:54:09.033Z,15.68
2018-02-25T22:56:36.508Z,15.38
2018-02-25T22:59:03.996Z,15.15
2018-02-25T23:01:31.482Z,15.35
2018-02-25T23:03:58.945Z,16.73
2018-02-25T23:06:27.116Z,15.00
2018-02-25T23:08:54.718Z,13.48
2018-02-25T23:11:22.279Z,15.90
2018-02-25T23:13:49.842Z,14.55
2018-02-25T23:16:17.300Z,15.35
2018-02-25T23:18:44.930Z,15.05
2018-02-25T23:21:12.414Z,16.17
2018-02-25T23:23:39.904Z,15.13
2018-02-25T23:26:07.466Z,16.00
2018-02-25T23:28:35.057Z,15.35
2018-02-25T23:31:02.516Z,15.88
2018-02-25T23:33:30.002Z,15.07
2018-02-25T23:35:57.477Z,14.57
2018-02-25T23:38:24.984Z,15.63
2018-02-25T23:40:52.491Z,15.40
2018-02-25T23:43:19.983Z,16.33
2018-02-25T23:45:47.537Z,15.88
2018-02-25T23:48:15.042Z,15.52
2018-02-25T23:50:42.536Z,15.35
2018-02-25T23:53:10.009Z,15.10
2018-02-25T23:55:37.523Z,15.38
2018-02-25T23:58:05.014Z,13.15
